Time;durP1;ratioP1;P1;durP2;ratioP2;P2;SDS_P1;SDS_P2;PMS_P1;PMS_P2;Temp;Humidity;BMP_temperature;BMP_pressure;BME280_temperature;BME280_humidity;BME280_pressure;Samples;Min_cycle;Max_cycle;Signal;HPM_P1;HPM_P2
2022/03/03 00:02:01;;;;;;;;;;;;;;;-4.12;58.97;101500.95;1649604;84;20121;-73
2022/03/03 00:04:27;;;;;;;;;;;;;;;-4.14;59.04;101492.42;1651271;86;20206;-73
2022/03/03 00:06:53;;;;;;;;;;;;;;;-4.17;58.94;101492.28;1658501;86;20717;-73
2022/03/03 00:09:19;;;;;;;;;;;;;;;-4.19;59.04;101496.38;1656195;86;20461;-73
2022/03/03 00:11:45;;;;;;;;;;;;;;;-4.21;59.12;101503.86;1654378;86;20249;-73
2022/03/03 00:14:10;;;;;;;;;;;;;;;-4.22;59.31;101501.24;1657673;84;20205;-73
2022/03/03 00:16:37;;;;;;;;;;;;;;;-4.22;59.20;101497.06;1661648;86;20261;-73
2022/03/03 00:19:03;;;;;;;;;;;;;;;-4.20;59.25;101495.89;1663295;84;20213;-73
2022/03/03 00:21:29;;;;;;;;;;;;;;;-4.19;59.16;101498.51;1649328;84;20125;-73
2022/03/03 00:23:54;;;;;;;;;;;;;;;-4.19;59.22;101493.84;1647542;86;20225;-73
2022/03/03 00:26:20;;;;;;;;;;;;;;;-4.24;59.17;101495.23;1655448;86;20289;-73
2022/03/03 00:28:46;;;;;;;;;;;;;;;-4.25;59.17;101491.84;1648579;84;20178;-73
2022/03/03 00:31:20;;;;;;;;;;;;;;;-4.26;59.17;101488.84;1649346;84;20473;-73
2022/03/03 00:33:46;;;;;;;;;;;;;;;-4.28;59.16;101487.00;1652307;86;20161;-72
2022/03/03 00:36:11;;;;;;;;;;;;;;;-4.31;59.22;101482.66;1652268;86;20182;-73
2022/03/03 00:38:37;;;;;;;;;;;;;;;-4.34;59.27;101481.21;1662396;86;20197;-73
2022/03/03 00:41:03;;;;;;;;;;;;;;;-4.36;59.24;101483.65;1651864;84;20416;-73
2022/03/03 00:43:29;;;;;;;;;;;;;;;-4.36;59.27;101486.56;1652039;86;20253;-73
2022/03/03 00:46:01;;;;;;;;;;;;;;;-4.37;59.30;101483.56;1653677;86;20595;-73
2022/03/03 00:48:26;;;;;;;;;;;;;;;-4.36;59.33;101486.56;1648937;86;20260;-73
2022/03/03 00:50:52;;;;;;;;;;;;;;;-4.38;59.41;101489.39;1659063;86;20197;-73
2022/03/03 00:53:19;;;;;;;;;;;;;;;-4.43;59.40;101489.12;1652341;86;20564;-73
2022/03/03 00:55:48;;;;;;;;;;;;;;;-4.43;59.70;101485.73;1656978;86;20504;-73
2022/03/03 00:58:14;;;;;;;;;;;;;;;-4.39;59.57;101482.59;1647646;86;20188;-73
2022/03/03 01:00:40;;;;;;;;;;;;;;;-4.41;59.50;101477.85;1646734;86;20571;-73
2022/03/03 01:03:06;;;;;;;;;;;;;;;-4.42;59.52;101467.28;1656472;84;20272;-73
2022/03/03 01:05:32;;;;;;;;;;;;;;;-4.48;59.47;101464.01;1645183;86;20475;-73
2022/03/03 01:07:58;;;;;;;;;;;;;;;-4.52;59.65;101469.66;1648241;86;20530;-73
2022/03/03 01:10:23;;;;;;;;;;;;;;;-4.55;59.58;101467.34;1651850;86;20569;-73
2022/03/03 01:12:49;;;;;;;;;;;;;;;-4.55;59.65;101461.04;1642004;86;20599;-73
2022/03/03 01:15:15;;;;;;;;;;;;;;;-4.55;59.59;101459.78;1654558;86;20209;-73
2022/03/03 01:17:41;;;;;;;;;;;;;;;-4.56;59.65;101450.07;1641874;86;20180;-73
2022/03/03 01:20:08;;;;;;;;;;;;;;;-4.57;59.72;101448.72;1651909;86;20868;-73
2022/03/03 01:22:34;;;;;;;;;;;;;;;-4.60;59.70;101438.45;1656886;86;20111;-73
2022/03/03 01:25:01;;;;;;;;;;;;;;;-4.64;59.74;101434.88;1652578;84;20138;-75
2022/03/03 01:27:26;;;;;;;;;;;;;;;-4.65;59.75;101439.45;1647843;86;20430;-75
2022/03/03 01:29:52;;;;;;;;;;;;;;;-4.63;59.85;101431.97;1649686;86;20148;-73
2022/03/03 01:32:18;;;;;;;;;;;;;;;-4.63;59.78;101431.97;1656909;86;20150;-73
2022/03/03 01:34:44;;;;;;;;;;;;;;;-4.67;59.72;101431.78;1654320;86;20153;-73
2022/03/03 01:37:10;;;;;;;;;;;;;;;-4.70;59.99;101434.16;1653192;84;20173;-73
2022/03/03 01:39:35;;;;;;;;;;;;;;;-4.69;59.95;101432.12;1665358;84;20206;-73
2022/03/03 01:42:01;;;;;;;;;;;;;;;-4.67;59.89;101428.00;1642446;86;20249;-73
2022/03/03 01:44:27;;;;;;;;;;;;;;;-4.68;59.85;101424.16;1649054;86;20168;-73
2022/03/03 01:46:57;;;;;;;;;;;;;;;-4.69;59.92;101422.03;1641129;86;20339;-73
2022/03/03 01:49:24;;;;;;;;;;;;;;;-4.69;59.92;101421.16;1652510;86;20202;-73
2022/03/03 01:51:50;;;;;;;;;;;;;;;-4.70;59.90;101419.42;1656157;86;20272;-73
2022/03/03 01:54:17;;;;;;;;;;;;;;;-4.71;59.85;101418.55;1662694;84;20360;-73
2022/03/03 01:56:43;;;;;;;;;;;;;;;-4.74;59.85;101416.23;1651106;84;20483;-73
2022/03/03 01:59:09;;;;;;;;;;;;;;;-4.76;59.81;101414.89;1652037;86;20328;-72
2022/03/03 02:01:37;;;;;;;;;;;;;;;-4.81;59.84;101411.62;1658126;86;20456;-72
2022/03/03 02:04:07;;;;;;;;;;;;;;;-4.83;59.89;101405.22;1643403;84;20354;-73
2022/03/03 02:06:34;;;;;;;;;;;;;;;-4.86;59.86;101411.34;1652145;86;20217;-73
2022/03/03 02:08:59;;;;;;;;;;;;;;;-4.91;59.91;101417.77;1632351;86;20201;-73
2022/03/03 02:11:26;;;;;;;;;;;;;;;-4.93;59.93;101407.11;1633093;86;20165;-73
2022/03/03 02:13:52;;;;;;;;;;;;;;;-4.98;60.14;101405.58;1634012;87;20137;-73
2022/03/03 02:16:19;;;;;;;;;;;;;;;-5.00;60.08;101400.84;1614863;86;20391;-73
2022/03/03 02:18:44;;;;;;;;;;;;;;;-4.99;60.15;101403.84;1649373;86;20465;-73
2022/03/03 02:21:15;;;;;;;;;;;;;;;-5.00;60.05;101399.19;1630108;86;20277;-73
2022/03/03 02:23:41;;;;;;;;;;;;;;;-5.01;60.07;101393.66;1634104;87;20165;-73
2022/03/03 02:26:10;;;;;;;;;;;;;;;-5.04;60.07;101392.22;1687227;85;20238;-73
2022/03/03 02:28:36;;;;;;;;;;;;;;;-5.06;60.10;101384.09;1629848;87;20846;-72
2022/03/03 02:31:03;;;;;;;;;;;;;;;-5.07;60.13;101386.13;1618417;87;20098;-72
2022/03/03 02:33:28;;;;;;;;;;;;;;;-5.07;60.12;101389.91;1629925;86;20132;-72
2022/03/03 02:35:54;;;;;;;;;;;;;;;-5.10;60.15;101380.52;1677943;85;20156;-73
2022/03/03 02:38:21;;;;;;;;;;;;;;;-5.10;60.19;101375.86;1645985;86;191116;-73
2022/03/03 02:40:47;;;;;;;;;;;;;;;-5.12;60.14;101359.77;1655976;85;20168;-72
2022/03/03 02:43:12;;;;;;;;;;;;;;;-5.16;60.17;101355.33;1648359;86;20169;-73
2022/03/03 02:45:39;;;;;;;;;;;;;;;-5.17;60.41;101361.16;1637512;86;20117;-73
2022/03/03 02:48:05;;;;;;;;;;;;;;;-5.18;60.63;101365.72;1651365;85;20199;-73
2022/03/03 02:50:31;;;;;;;;;;;;;;;-5.21;60.37;101369.34;1641604;86;20208;-73
2022/03/03 02:53:00;;;;;;;;;;;;;;;-5.23;60.40;101373.43;1655264;86;20174;-73
2022/03/03 02:55:24;;;;;;;;;;;;;;;-5.25;60.69;101373.34;1664731;85;20110;-73
2022/03/03 02:57:53;;;;;;;;;;;;;;;-5.22;60.63;101366.34;1622947;87;20196;-72
2022/03/03 03:00:20;;;;;;;;;;;;;;;-5.20;60.52;101354.70;1676296;84;20729;-73
2022/03/03 03:02:45;;;;;;;;;;;;;;;-5.18;60.54;101359.02;1688284;85;20097;-73
2022/03/03 03:05:11;;;;;;;;;;;;;;;-5.18;60.45;101352.72;1662338;85;20201;-73
2022/03/03 03:07:38;;;;;;;;;;;;;;;-5.21;60.58;101352.97;1671721;84;20094;-73
2022/03/03 03:10:06;;;;;;;;;;;;;;;-5.26;60.43;101360.25;1633838;87;20133;-72
2022/03/03 03:12:32;;;;;;;;;;;;;;;-5.29;60.74;101361.33;1591005;89;20101;-72
2022/03/03 03:14:58;;;;;;;;;;;;;;;-5.27;60.78;101362.68;1605609;88;20091;-72
2022/03/03 03:17:24;;;;;;;;;;;;;;;-5.26;60.64;101358.13;1611814;88;20249;-73
2022/03/03 03:19:50;;;;;;;;;;;;;;;-5.27;60.66;101360.16;1604346;88;20172;-72
2022/03/03 03:22:16;;;;;;;;;;;;;;;-5.29;60.56;101360.07;1605682;88;20136;-73
2022/03/03 03:24:42;;;;;;;;;;;;;;;-5.34;60.60;101362.70;1613373;88;20174;-73
2022/03/03 03:27:09;;;;;;;;;;;;;;;-5.38;60.72;101362.05;1607954;88;20315;-73
2022/03/03 03:29:35;;;;;;;;;;;;;;;-5.39;60.72;101358.66;1604371;88;20127;-72
2022/03/03 03:32:01;;;;;;;;;;;;;;;-5.38;60.70;101366.69;1604482;88;20488;-72
2022/03/03 03:34:26;;;;;;;;;;;;;;;-5.39;60.65;101356.13;1614416;88;20218;-72
2022/03/03 03:36:52;;;;;;;;;;;;;;;-5.40;60.78;101348.09;1602518;88;20781;-73
2022/03/03 03:39:18;;;;;;;;;;;;;;;-5.40;60.78;101349.35;1608065;88;20150;-73
2022/03/03 03:41:45;;;;;;;;;;;;;;;-5.40;60.64;101343.44;1603690;88;20180;-73
2022/03/03 03:44:11;;;;;;;;;;;;;;;-5.43;60.62;101335.31;1603224;88;20301;-72
2022/03/03 03:46:37;;;;;;;;;;;;;;;-5.47;60.58;101340.07;1605309;87;20217;-72
2022/03/03 03:49:07;;;;;;;;;;;;;;;-5.53;60.57;101330.89;1608827;88;20719;-73
2022/03/03 03:51:33;;;;;;;;;;;;;;;-5.57;60.66;101323.53;1621242;88;20193;-73
2022/03/03 03:53:59;;;;;;;;;;;;;;;-5.56;60.71;101325.66;1624080;87;20222;-73
2022/03/03 03:56:25;;;;;;;;;;;;;;;-5.59;60.72;101317.53;1605873;87;20193;-72
2022/03/03 03:58:50;;;;;;;;;;;;;;;-5.59;60.75;101312.89;1604497;88;20829;-72
2022/03/03 04:01:17;;;;;;;;;;;;;;;-5.60;60.76;101307.37;1608927;88;20909;-72
2022/03/03 04:03:43;;;;;;;;;;;;;;;-5.64;60.96;101307.96;1612691;87;20183;-72
2022/03/03 04:06:09;;;;;;;;;;;;;;;-5.67;60.90;101306.12;1605492;88;20282;-73
2022/03/03 04:08:36;;;;;;;;;;;;;;;-5.68;61.05;101305.27;1623584;87;20174;-72
2022/03/03 04:11:03;;;;;;;;;;;;;;;-5.70;61.09;101303.03;1624039;87;20196;-72
2022/03/03 04:13:29;;;;;;;;;;;;;;;-5.70;61.04;101299.26;1652160;85;20214;-73
2022/03/03 04:15:54;;;;;;;;;;;;;;;-5.69;61.20;101295.96;1660022;86;20087;-73
2022/03/03 04:18:20;;;;;;;;;;;;;;;-5.66;61.04;101294.02;1659111;86;20166;-72
2022/03/03 04:20:46;;;;;;;;;;;;;;;-5.69;60.98;101297.22;1654097;86;20157;-72
2022/03/03 04:23:12;;;;;;;;;;;;;;;-5.70;60.96;101299.65;1656599;86;20161;-72
2022/03/03 04:25:38;;;;;;;;;;;;;;;-5.70;61.00;101295.88;1663948;86;20443;-73
2022/03/03 04:28:04;;;;;;;;;;;;;;;-5.72;61.14;101304.59;1643586;86;20137;-73
2022/03/03 04:30:31;;;;;;;;;;;;;;;-5.76;61.03;101299.31;1656605;86;20434;-73
2022/03/03 04:32:57;;;;;;;;;;;;;;;-5.83;61.12;101301.84;1661057;84;20162;-73
2022/03/03 04:35:23;;;;;;;;;;;;;;;-5.85;61.24;101292.46;1656145;84;20101;-72
2022/03/03 04:37:49;;;;;;;;;;;;;;;-5.83;61.37;101292.16;1654058;86;20114;-72
2022/03/03 04:40:15;;;;;;;;;;;;;;;-5.82;61.45;101285.96;1655015;86;20213;-72
2022/03/03 04:42:42;;;;;;;;;;;;;;;-5.78;61.33;101287.02;1659229;84;20461;-72
2022/03/03 04:45:09;;;;;;;;;;;;;;;-5.82;61.13;101283.83;1658913;84;20157;-72
2022/03/03 04:47:35;;;;;;;;;;;;;;;-5.84;61.20;101283.73;1659303;86;20119;-73
2022/03/03 04:50:03;;;;;;;;;;;;;;;-5.85;61.32;101291.20;1649420;86;20133;-72
2022/03/03 04:52:29;;;;;;;;;;;;;;;-5.90;61.26;101285.92;1642320;86;20155;-73
2022/03/03 04:54:55;;;;;;;;;;;;;;;-5.89;61.27;101289.31;1645827;86;20187;-73
2022/03/03 04:57:23;;;;;;;;;;;;;;;-5.91;61.45;101284.18;1647163;86;20431;-72
2022/03/03 04:59:49;;;;;;;;;;;;;;;-5.92;61.23;101287.86;1654174;86;20126;-72
2022/03/03 05:02:14;;;;;;;;;;;;;;;-5.96;61.23;101285.55;1662582;84;20776;-72
2022/03/03 05:04:40;;;;;;;;;;;;;;;-6.02;61.21;101291.47;1666168;84;20225;-72
2022/03/03 05:07:06;;;;;;;;;;;;;;;-6.06;61.25;101286.63;1664333;84;20244;-73
2022/03/03 05:09:32;;;;;;;;;;;;;;;-6.07;61.23;101286.55;1661076;84;20765;-73
2022/03/03 05:11:59;;;;;;;;;;;;;;;-6.09;61.25;101289.35;1660603;84;20551;-72
2022/03/03 05:14:29;;;;;;;;;;;;;;;-6.09;61.47;101295.26;1660611;84;20508;-73
2022/03/03 05:16:55;;;;;;;;;;;;;;;-6.06;61.57;101294.19;1663253;84;20871;-73
2022/03/03 05:19:21;;;;;;;;;;;;;;;-6.04;61.40;101293.02;1662534;84;20181;-72
2022/03/03 05:21:46;;;;;;;;;;;;;;;-6.07;61.45;101294.97;1645864;84;20738;-72
2022/03/03 05:24:12;;;;;;;;;;;;;;;-6.08;61.47;101292.35;1646491;86;20201;-74
2022/03/03 05:26:38;;;;;;;;;;;;;;;-6.08;61.49;101288.19;1652954;84;21028;-73
2022/03/03 05:29:03;;;;;;;;;;;;;;;-6.08;61.46;101281.02;1654310;84;20212;-73
2022/03/03 05:31:29;;;;;;;;;;;;;;;-6.11;61.42;101287.13;1647017;84;20859;-73
2022/03/03 05:33:55;;;;;;;;;;;;;;;-6.13;61.44;101288.30;1653621;86;20733;-73
2022/03/03 05:36:24;;;;;;;;;;;;;;;-6.15;61.45;101286.45;1660003;84;20217;-73
2022/03/03 05:38:52;;;;;;;;;;;;;;;-6.18;61.42;101295.95;1652104;84;20478;-73
2022/03/03 05:41:18;;;;;;;;;;;;;;;-6.19;61.45;101295.86;1658437;86;20465;-73
2022/03/03 05:43:45;;;;;;;;;;;;;;;-6.20;61.54;101289.95;1658134;84;20475;-74
2022/03/03 05:46:11;;;;;;;;;;;;;;;-6.18;61.67;101290.91;1642948;86;20989;-74
2022/03/03 05:48:36;;;;;;;;;;;;;;;-6.16;61.57;101298.17;1655816;86;20188;-74
2022/03/03 05:51:04;;;;;;;;;;;;;;;-6.17;61.56;101305.23;1656598;86;20552;-74
2022/03/03 05:53:30;;;;;;;;;;;;;;;-6.20;61.76;101306.70;1656158;84;20224;-74
2022/03/03 05:55:57;;;;;;;;;;;;;;;-6.20;61.97;101307.56;1651256;86;20855;-74
2022/03/03 05:58:28;;;;;;;;;;;;;;;-6.10;62.11;101305.23;1659534;85;20189;-74
2022/03/03 06:00:56;;;;;;;;;;;;;;;-6.06;62.14;101303.39;1659883;85;20210;-74
2022/03/03 06:03:24;;;;;;;;;;;;;;;-5.98;62.13;101310.15;1645763;84;20540;-74
2022/03/03 06:05:52;;;;;;;;;;;;;;;-5.85;62.26;101302.14;1660240;84;20575;-74
2022/03/03 06:08:23;;;;;;;;;;;;;;;-5.69;62.35;101306.04;1660221;84;20182;-74
2022/03/03 06:10:53;;;;;;;;;;;;;;;-5.54;62.41;101310.25;1658005;86;20227;-74
2022/03/03 06:13:24;;;;;;;;;;;;;;;-5.41;62.45;101312.33;1644835;86;20434;-74
2022/03/03 06:15:51;;;;;;;;;;;;;;;-5.27;62.41;101314.41;1623601;87;20483;-74
2022/03/03 06:18:20;;;;;;;;;;;;;;;-5.17;62.26;101321.69;1655606;85;20756;-74
2022/03/03 06:20:46;;;;;;;;;;;;;;;-5.13;62.25;101320.22;1614934;87;20203;-74
2022/03/03 06:23:13;;;;;;;;;;;;;;;-5.11;62.37;101327.09;1669765;85;20270;-74
2022/03/03 06:25:39;;;;;;;;;;;;;;;-5.03;62.86;101328.41;1633152;87;20477;-74
2022/03/03 06:28:05;;;;;;;;;;;;;;;-4.87;63.17;101329.29;1626902;87;20827;-74
2022/03/03 06:30:32;;;;;;;;;;;;;;;-4.73;63.15;101324.25;1632341;87;20212;-74
2022/03/03 06:32:58;;;;;;;;;;;;;;;-4.60;63.46;101323.25;1659845;85;20212;-74
2022/03/03 06:35:24;;;;;;;;;;;;;;;-4.47;63.78;101327.33;1681402;85;20211;-74
2022/03/03 06:37:50;;;;;;;;;;;;;;;-4.34;63.54;101327.23;1663674;84;20276;-73
2022/03/03 06:40:16;;;;;;;;;;;;;;;-4.21;63.34;101329.64;1676334;85;21832;-73
2022/03/03 06:42:41;;;;;;;;;;;;;;;-4.08;63.58;101329.48;1636038;86;20158;-74
2022/03/03 06:45:08;;;;;;;;;;;;;;;-3.96;63.68;101330.94;1678244;85;20771;-74
2022/03/03 06:47:34;;;;;;;;;;;;;;;-3.85;63.66;101328.20;1667136;85;20199;-74
2022/03/03 06:50:03;;;;;;;;;;;;;;;-3.73;63.48;101322.92;1658702;85;20232;-74
2022/03/03 06:52:30;;;;;;;;;;;;;;;-3.62;63.81;101320.53;1674390;85;20177;-74
2022/03/03 06:54:58;;;;;;;;;;;;;;;-3.51;63.78;101316.91;1653713;85;20193;-74
2022/03/03 06:57:29;;;;;;;;;;;;;;;-3.39;64.35;101321.73;1675010;85;20213;-74
2022/03/03 06:59:59;;;;;;;;;;;;;;;-3.27;64.41;101317.30;1641391;86;20225;-73
2022/03/03 07:02:26;;;;;;;;;;;;;;;-3.17;63.95;101320.77;1661915;85;20236;-73
2022/03/03 07:04:52;;;;;;;;;;;;;;;-3.07;64.56;101329.66;1666479;85;20186;-73
2022/03/03 07:07:19;;;;;;;;;;;;;;;-2.97;64.68;101317.94;1679434;84;20216;-73
2022/03/03 07:09:44;;;;;;;;;;;;;;;-2.87;64.51;101312.94;1679778;84;20149;-73
2022/03/03 07:12:13;;;;;;;;;;;;;;;-2.80;64.75;101318.37;1642142;85;20143;-73
2022/03/03 07:14:38;;;;;;;;;;;;;;;-2.70;64.74;101315.50;1659115;85;20226;-73
2022/03/03 07:17:10;;;;;;;;;;;;;;;-2.60;64.23;101312.14;1655404;84;20214;-74
2022/03/03 07:19:45;;;;;;;;;;;;;;;-2.53;64.87;101312.48;1649635;86;20182;-74
2022/03/03 07:22:40;;;;;;;;;;;;;;;-2.45;64.14;101314.98;1658279;84;20099;-73
2022/03/03 07:25:14;;;;;;;;;;;;;;;-2.41;64.87;101320.66;1647902;86;20253;-73
2022/03/03 07:27:45;;;;;;;;;;;;;;;-2.34;65.07;101311.69;1651862;86;20182;-73
2022/03/03 07:30:13;;;;;;;;;;;;;;;-2.26;65.10;101317.98;1659500;86;20407;-73
2022/03/03 07:32:47;;;;;;;;;;;;;;;-2.18;65.11;101317.08;1646451;84;20107;-73
2022/03/03 07:35:14;;;;;;;;;;;;;;;-2.12;65.01;101318.63;1652894;86;20131;-73
2022/03/03 07:37:47;;;;;;;;;;;;;;;-2.08;65.44;101317.54;1659338;86;20135;-73
2022/03/03 07:40:13;;;;;;;;;;;;;;;-2.03;65.28;101316.09;1594513;87;20188;-73
2022/03/03 07:42:39;;;;;;;;;;;;;;;-1.96;65.36;101317.64;1597523;87;20195;-74
2022/03/03 07:45:07;;;;;;;;;;;;;;;-1.90;65.46;101319.19;1613663;87;20441;-74
2022/03/03 07:47:34;;;;;;;;;;;;;;;-1.86;65.53;101315.98;1605554;87;21836;-74
2022/03/03 07:50:00;;;;;;;;;;;;;;;-1.84;65.39;101324.53;1606504;87;20093;-73
2022/03/03 07:52:26;;;;;;;;;;;;;;;-1.78;65.41;101328.61;1615330;87;20175;-73
2022/03/03 07:54:53;;;;;;;;;;;;;;;-1.72;65.47;101331.42;1610427;87;20225;-73
2022/03/03 07:57:21;;;;;;;;;;;;;;;-1.65;65.60;101333.44;1610566;87;20204;-73
2022/03/03 07:59:49;;;;;;;;;;;;;;;-1.61;65.26;101344.18;1611211;87;20186;-73
2022/03/03 08:02:22;;;;;;;;;;;;;;;-1.58;65.53;101335.45;1617860;87;20533;-73
2022/03/03 08:04:52;;;;;;;;;;;;;;;-1.57;65.31;101340.12;1606339;87;411815;-74
2022/03/03 08:07:19;;;;;;;;;;;;;;;-1.54;65.93;101342.75;1610953;87;20387;-74
2022/03/03 08:09:48;;;;;;;;;;;;;;;-1.52;65.60;101339.48;1612677;86;20200;-74
2022/03/03 08:12:16;;;;;;;;;;;;;;;-1.51;65.65;101338.69;1622130;86;20228;-74
2022/03/03 08:14:43;;;;;;;;;;;;;;;-1.47;65.84;101334.22;1611512;86;20160;-74
2022/03/03 08:17:14;;;;;;;;;;;;;;;-1.42;65.60;101344.16;1645735;83;20205;-74
2022/03/03 08:19:42;;;;;;;;;;;;;;;-1.38;65.47;101341.36;1658345;84;20407;-74
2022/03/03 08:22:09;;;;;;;;;;;;;;;-1.35;66.02;101342.77;1666598;85;20341;-74
2022/03/03 08:24:42;;;;;;;;;;;;;;;-1.32;65.77;101346.70;1667714;84;20173;-74
2022/03/03 08:27:05;;;;;;;;;;;;;;;-1.29;66.05;101339.23;1665700;85;20345;-74
2022/03/03 08:29:32;;;;;;;;;;;;;;;-1.24;65.79;101337.76;1665388;85;20210;-74
2022/03/03 08:31:58;;;;;;;;;;;;;;;-1.22;65.98;101340.36;1668344;84;20219;-74
2022/03/03 08:34:34;;;;;;;;;;;;;;;-1.20;65.49;101330.75;1669554;84;20106;-74
2022/03/03 08:37:03;;;;;;;;;;;;;;;-1.19;66.23;101340.09;1667858;85;20197;-74
2022/03/03 08:39:30;;;;;;;;;;;;;;;-1.16;65.88;101348.23;1670666;84;20142;-74
2022/03/03 08:41:59;;;;;;;;;;;;;;;-1.16;66.21;101348.23;1673325;84;20193;-74
2022/03/03 08:44:33;;;;;;;;;;;;;;;-1.13;66.31;101348.37;1600969;84;34761;-74
2022/03/03 08:47:03;;;;;;;;;;;;;;;-1.08;66.28;101346.90;1567655;90;20242;-74
2022/03/03 08:49:30;;;;;;;;;;;;;;;-1.04;65.80;101343.69;1576656;89;20243;-74
2022/03/03 08:51:57;;;;;;;;;;;;;;;-1.07;66.10;101330.87;1574007;89;20230;-74
2022/03/03 08:54:23;;;;;;;;;;;;;;;-0.97;66.19;101340.58;1581813;89;20130;-74
2022/03/03 08:56:49;;;;;;;;;;;;;;;-0.92;65.87;101336.96;1555644;91;20337;-74
2022/03/03 08:59:15;;;;;;;;;;;;;;;-0.89;66.44;101340.50;1563311;90;20223;-74
2022/03/03 09:01:41;;;;;;;;;;;;;;;-0.81;66.50;101345.89;1575282;90;20254;-74
2022/03/03 09:04:07;;;;;;;;;;;;;;;-0.84;66.30;101347.91;1585514;90;20258;-75
2022/03/03 09:06:42;;;;;;;;;;;;;;;-0.84;66.27;101350.84;1560168;90;20136;-75
2022/03/03 09:09:08;;;;;;;;;;;;;;;-0.81;66.65;101348.43;1577149;89;20134;-74
2022/03/03 09:11:33;;;;;;;;;;;;;;;-0.76;66.53;101346.55;1585090;89;20203;-74
2022/03/03 09:13:59;;;;;;;;;;;;;;;-0.70;66.46;101352.28;1608578;87;20184;-74
2022/03/03 09:16:26;;;;;;;;;;;;;;;-0.69;66.76;101352.34;1620191;87;20121;-74
2022/03/03 09:18:52;;;;;;;;;;;;;;;-0.67;66.71;101347.33;1607444;87;20436;-74
2022/03/03 09:21:18;;;;;;;;;;;;;;;-0.58;66.71;101341.77;1624964;87;20104;-74
2022/03/03 09:23:44;;;;;;;;;;;;;;;-0.53;66.56;101344.09;1601147;87;20229;-74
2022/03/03 09:26:10;;;;;;;;;;;;;;;-0.51;66.73;101336.96;1624105;87;20097;-74
2022/03/03 09:28:36;;;;;;;;;;;;;;;-0.48;66.64;101337.48;1614149;87;20177;-74
2022/03/03 09:31:02;;;;;;;;;;;;;;;-0.45;66.82;101335.94;1631902;87;20221;-74
2022/03/03 09:33:28;;;;;;;;;;;;;;;-0.38;66.58;101339.59;1604317;87;20110;-74
2022/03/03 09:35:54;;;;;;;;;;;;;;;-0.37;66.67;101339.65;1630296;87;20156;-74
2022/03/03 09:38:20;;;;;;;;;;;;;;;-0.36;66.88;101339.25;1596081;87;20156;-74
2022/03/03 09:40:48;;;;;;;;;;;;;;;-0.30;66.99;101343.70;1624092;87;20144;-74
2022/03/03 09:43:14;;;;;;;;;;;;;;;-0.24;67.00;101349.90;1627316;87;20113;-74
2022/03/03 09:45:40;;;;;;;;;;;;;;;-0.20;66.99;101353.02;1607690;87;20145;-74
2022/03/03 09:48:07;;;;;;;;;;;;;;;-0.16;67.04;101357.42;1623442;87;20110;-74
2022/03/03 09:50:35;;;;;;;;;;;;;;;-0.09;67.10;101360.66;1632282;87;20145;-74
2022/03/03 09:53:07;;;;;;;;;;;;;;;-0.08;67.23;101363.67;1625217;87;20130;-74
2022/03/03 09:55:36;;;;;;;;;;;;;;;-0.09;67.03;101364.48;1618163;87;20138;-74
2022/03/03 09:58:03;;;;;;;;;;;;;;;-0.07;66.77;101356.91;1631092;85;20189;-74
2022/03/03 10:00:36;;;;;;;;;;;;;;;-0.05;66.99;101361.25;1629731;87;20185;-75
2022/03/03 10:02:59;;;;;;;;;;;;;;;-0.04;66.96;101361.71;1616779;87;20125;-75
2022/03/03 10:05:34;;;;;;;;;;;;;;;-0.01;66.95;101370.73;1621564;87;20288;-74
2022/03/03 10:08:02;;;;;;;;;;;;;;;0.03;67.01;101371.68;1632078;87;20137;-74
2022/03/03 10:10:28;;;;;;;;;;;;;;;0.09;67.29;101377.00;1620950;87;20137;-74
2022/03/03 10:12:56;;;;;;;;;;;;;;;0.13;66.92;101378.86;1606152;88;20220;-74
2022/03/03 10:15:24;;;;;;;;;;;;;;;0.14;67.05;101369.55;1614056;88;20114;-74
2022/03/03 10:18:06;;;;;;;;;;;;;;;0.15;67.14;101369.61;1618656;88;20118;-75
2022/03/03 10:20:53;;;;;;;;;;;;;;;0.18;67.43;101372.67;1609887;87;20184;-75
2022/03/03 10:23:23;;;;;;;;;;;;;;;0.25;67.16;101369.55;1594380;88;20458;-74
2022/03/03 10:25:52;;;;;;;;;;;;;;;0.31;67.42;101373.60;1623514;87;20230;-74
2022/03/03 10:28:23;;;;;;;;;;;;;;;0.35;67.50;101369.09;1613113;87;20232;-74
2022/03/03 10:31:06;;;;;;;;;;;;;;;0.42;67.63;101372.73;1597664;88;20184;-74
2022/03/03 10:33:42;;;;;;;;;;;;;;;0.42;67.43;101381.64;1621527;88;20158;-74
2022/03/03 10:36:19;;;;;;;;;;;;;;;0.43;67.59;101384.64;1610157;88;20213;-74
2022/03/03 10:39:00;;;;;;;;;;;;;;;0.49;67.47;101381.05;1597582;87;20228;-74
2022/03/03 10:41:43;;;;;;;;;;;;;;;0.49;67.74;101383.19;1619520;87;20245;-74
2022/03/03 10:44:12;;;;;;;;;;;;;;;0.47;67.25;101375.91;1617935;88;20216;-75
2022/03/03 10:47:00;;;;;;;;;;;;;;;0.45;67.58;101377.53;1608891;88;20195;-74
2022/03/03 10:49:27;;;;;;;;;;;;;;;0.47;67.60;101369.95;1596815;88;20211;-74
2022/03/03 10:51:53;;;;;;;;;;;;;;;0.52;67.67;101362.09;1601149;88;20194;-75
2022/03/03 10:54:19;;;;;;;;;;;;;;;0.58;67.91;101369.51;1603327;87;20207;-75
2022/03/03 10:56:49;;;;;;;;;;;;;;;0.67;67.75;101356.25;1595948;88;20210;-74
2022/03/03 10:59:24;;;;;;;;;;;;;;;0.74;67.68;101349.30;1600357;88;20139;-75
2022/03/03 11:01:51;;;;;;;;;;;;;;;0.81;67.56;101350.38;1595341;88;20412;-75
2022/03/03 11:04:18;;;;;;;;;;;;;;;0.82;67.54;101349.16;1602245;88;20187;-75
2022/03/03 11:06:44;;;;;;;;;;;;;;;0.85;67.73;101352.22;1602437;88;20113;-75
2022/03/03 11:09:10;;;;;;;;;;;;;;;0.85;67.63;101353.49;1612570;86;20104;-75
2022/03/03 11:11:37;;;;;;;;;;;;;;;0.85;67.87;101347.12;1598696;87;20252;-75
2022/03/03 11:14:03;;;;;;;;;;;;;;;0.90;67.89;101351.97;1586639;88;20138;-75
2022/03/03 11:16:30;;;;;;;;;;;;;;;0.96;68.04;101356.01;1585111;88;39073;-75
2022/03/03 11:18:56;;;;;;;;;;;;;;;1.03;67.92;101353.27;1583862;88;20189;-75
2022/03/03 11:21:28;;;;;;;;;;;;;;;1.02;67.92;101349.85;1602385;88;20110;-74
2022/03/03 11:23:59;;;;;;;;;;;;;;;1.03;67.92;101354.55;1601864;88;20223;-74
2022/03/03 11:26:31;;;;;;;;;;;;;;;1.05;68.15;101346.11;1617398;87;20098;-74
2022/03/03 11:29:11;;;;;;;;;;;;;;;1.10;68.17;101349.67;1610118;88;20117;-74
2022/03/03 11:31:38;;;;;;;;;;;;;;;1.14;68.11;101338.78;1610727;87;20164;-74
2022/03/03 11:34:26;;;;;;;;;;;;;;;1.17;68.22;101341.84;1606751;88;20098;-74
2022/03/03 11:37:23;;;;;;;;;;;;;;;1.22;68.28;101342.45;1611324;88;20137;-74
2022/03/03 11:39:58;;;;;;;;;;;;;;;1.28;68.29;101342.66;1604405;88;20110;-74
2022/03/03 11:42:29;;;;;;;;;;;;;;;1.30;68.17;101339.75;1609622;88;20593;-74
2022/03/03 11:44:58;;;;;;;;;;;;;;;1.32;68.20;101331.75;1614129;88;20300;-74
2022/03/03 11:47:31;;;;;;;;;;;;;;;1.35;68.29;101335.22;1607935;88;20202;-74
2022/03/03 11:50:00;;;;;;;;;;;;;;;1.37;68.17;101332.31;1615425;88;20363;-74
2022/03/03 11:52:27;;;;;;;;;;;;;;;1.38;68.30;101331.50;1597880;87;20540;-74
2022/03/03 11:54:59;;;;;;;;;;;;;;;1.37;68.32;101329.77;1604326;88;20191;-75
2022/03/03 11:57:28;;;;;;;;;;;;;;;1.41;68.44;101334.14;1612743;88;20218;-74
2022/03/03 11:59:56;;;;;;;;;;;;;;;1.46;68.48;101341.53;1598358;88;20136;-74
2022/03/03 12:02:32;;;;;;;;;;;;;;;1.48;68.31;101336.95;1602357;88;20567;-74
2022/03/03 12:05:30;;;;;;;;;;;;;;;1.50;68.26;101334.45;1595899;87;20227;-75
2022/03/03 12:08:01;;;;;;;;;;;;;;;1.51;68.37;101333.22;1619897;88;20145;-74
2022/03/03 12:10:28;;;;;;;;;;;;;;;1.55;68.48;101336.73;1622173;87;20511;-74
2022/03/03 12:13:27;;;;;;;;;;;;;;;1.58;68.36;101336.39;1610110;87;20180;-74
2022/03/03 12:16:22;;;;;;;;;;;;;;;1.62;68.42;101337.35;1603472;87;20221;-74
2022/03/03 12:18:58;;;;;;;;;;;;;;;1.61;68.51;101339.03;1603752;87;20191;-74
2022/03/03 12:21:34;;;;;;;;;;;;;;;1.63;68.47;101333.58;1606742;87;20205;-74
2022/03/03 12:24:27;;;;;;;;;;;;;;;1.65;68.46;101336.17;1604495;87;20243;-74
2022/03/03 12:26:59;;;;;;;;;;;;;;;1.66;68.52;101336.63;1612055;87;20232;-74
2022/03/03 12:29:45;;;;;;;;;;;;;;;1.67;68.45;101335.81;1614953;87;20553;-74
2022/03/03 12:32:34;;;;;;;;;;;;;;;1.69;68.67;101348.61;1600839;87;20242;-74
2022/03/03 12:35:09;;;;;;;;;;;;;;;1.75;68.66;101355.18;1600162;87;20137;-75
2022/03/03 12:37:42;;;;;;;;;;;;;;;1.77;68.61;101337.84;1623152;87;20446;-74
2022/03/03 12:40:09;;;;;;;;;;;;;;;1.81;68.69;101334.56;1615553;87;20141;-74
2022/03/03 12:42:37;;;;;;;;;;;;;;;1.87;68.74;101336.03;1608402;87;20509;-75
2022/03/03 12:45:09;;;;;;;;;;;;;;;1.91;68.73;101335.31;1627210;87;20190;-75